WNZ weather

Wenzhou Longwan International Airport
Wenzhou, Zhejiang Province, China

Public forecast

Using degrees Celsius for public forecast. Weather courtesy of forecast.io.

Current aviation weather report (METAR) for Wenzhou Longwan International Airport

Report is more than 6 hours old.

Retrieved 2018/11/13 02:00 UTC (1 year ago):

ZSWZ 130200Z 06004MPS 9999 FEW017 BKN040 18/13 Q1021 NOSIG

Aviation forecast (TAF) for Wenzhou Longwan International Airport

Forecast is more than 12 hours old.

Retrieved 2019/08/24 06:48 UTC (7 months ago):

TAF ZSWZ 240313Z 2406/2506 10006G11MPS 6000 SCT011 TX33/06Z TN26/21Z TEMPO 0612 SHRA BECMG 1920 16008G13MPS TEMPO 2002 SHRA